createdAt,value
2016-10-05T00:00:51.500Z,740.37
2016-10-05T00:01:51.477Z,740.32
2016-10-05T00:02:51.459Z,740.39
2016-10-05T00:03:51.449Z,740.33
2016-10-05T00:04:51.434Z,740.35
2016-10-05T00:05:51.410Z,740.35
2016-10-05T00:06:51.399Z,740.33
2016-10-05T00:07:51.376Z,740.32
2016-10-05T00:08:51.360Z,740.29
2016-10-05T00:09:51.341Z,740.25
2016-10-05T00:10:51.332Z,740.27
2016-10-05T00:11:51.309Z,740.32
2016-10-05T00:12:51.290Z,740.24
2016-10-05T00:13:51.281Z,740.29
2016-10-05T00:14:51.258Z,740.29
2016-10-05T00:15:51.248Z,740.26
2016-10-05T00:16:51.230Z,740.25
2016-10-05T00:17:51.209Z,740.2
2016-10-05T00:18:51.191Z,740.19
2016-10-05T00:19:51.179Z,740.22
2016-10-05T00:20:51.165Z,740.21
2016-10-05T00:21:51.146Z,740.21
2016-10-05T00:22:51.124Z,740.19
2016-10-05T00:23:51.104Z,740.18
2016-10-05T00:24:51.095Z,740.15
2016-10-05T00:25:51.071Z,740.16
2016-10-05T00:26:51.063Z,740.17
2016-10-05T00:27:51.045Z,740.14
2016-10-05T00:28:51.021Z,740.14
2016-10-05T00:29:51.005Z,740.09
2016-10-05T00:30:50.987Z,740.09
2016-10-05T00:31:50.970Z,740.11
2016-10-05T00:32:50.954Z,740.08
2016-10-05T00:33:50.944Z,740.05
2016-10-05T00:34:50.927Z,740.08
2016-10-05T00:35:50.909Z,740.07
2016-10-05T00:36:50.893Z,740.04
2016-10-05T00:37:50.869Z,740.13
2016-10-05T00:38:50.860Z,740.04
2016-10-05T00:39:50.835Z,740.06
2016-10-05T00:40:50.825Z,740.07
2016-10-05T00:41:50.807Z,740.04
2016-10-05T00:42:50.783Z,740.08
2016-10-05T00:43:50.767Z,740.04
2016-10-05T00:44:50.756Z,740.07
2016-10-05T00:45:50.730Z,740.03
2016-10-05T00:46:50.720Z,740.03
2016-10-05T00:47:50.703Z,739.99
2016-10-05T00:48:50.687Z,739.96
2016-10-05T00:49:50.668Z,739.97
2016-10-05T00:50:50.652Z,739.97
2016-10-05T00:51:50.629Z,739.97
2016-10-05T00:52:50.617Z,739.98
2016-10-05T00:53:50.593Z,740.01
2016-10-05T00:54:50.583Z,739.96
2016-10-05T00:55:50.566Z,739.99
2016-10-05T00:56:50.548Z,739.97
2016-10-05T00:57:50.525Z,739.98
2016-10-05T00:58:50.514Z,739.99
2016-10-05T00:59:50.490Z,739.97
2016-10-05T01:00:50.473Z,739.98
2016-10-05T01:01:50.463Z,739.95
2016-10-05T01:02:50.439Z,740
2016-10-05T01:03:50.424Z,740
2016-10-05T01:04:50.404Z,739.98
2016-10-05T01:05:50.386Z,739.97
2016-10-05T01:06:50.370Z,739.93
2016-10-05T01:07:50.431Z,739.98
2016-10-05T01:08:50.335Z,739.97
2016-10-05T01:09:50.317Z,739.93
2016-10-05T01:10:50.306Z,739.94
2016-10-05T01:11:50.282Z,739.91
2016-10-05T01:12:50.275Z,739.88
2016-10-05T01:13:50.249Z,739.89
2016-10-05T01:14:50.230Z,739.89
2016-10-05T01:15:50.219Z,739.83
2016-10-05T01:16:50.198Z,739.92
2016-10-05T01:17:50.188Z,739.91
2016-10-05T01:18:50.168Z,739.91
2016-10-05T01:19:50.153Z,739.92
2016-10-05T01:20:50.135Z,739.88
2016-10-05T01:21:50.120Z,739.84
2016-10-05T01:22:50.094Z,739.83
2016-10-05T01:23:50.078Z,739.84
2016-10-05T01:24:50.069Z,739.85
2016-10-05T01:25:50.050Z,739.82
2016-10-05T01:26:50.028Z,739.76
2016-10-05T01:27:50.010Z,739.79
2016-10-05T01:28:50.001Z,739.74
2016-10-05T01:29:49.983Z,739.75
2016-10-05T01:30:49.966Z,739.76
2016-10-05T01:31:49.943Z,739.71
2016-10-05T01:32:49.927Z,739.76
2016-10-05T01:33:49.914Z,739.74
2016-10-05T01:34:49.891Z,739.67
2016-10-05T01:35:49.874Z,739.65
2016-10-05T01:36:49.857Z,739.66
2016-10-05T01:37:49.847Z,739.63
2016-10-05T01:38:49.829Z,739.61
2016-10-05T01:39:49.806Z,739.61
2016-10-05T01:40:49.789Z,739.62
2016-10-05T01:41:49.777Z,739.61
2016-10-05T01:42:49.754Z,739.61
2016-10-05T01:43:49.743Z,739.63
2016-10-05T01:44:49.718Z,739.63
2016-10-05T01:45:49.710Z,739.66
2016-10-05T01:46:49.684Z,739.57
2016-10-05T01:47:49.670Z,739.66
2016-10-05T01:48:49.657Z,739.62
2016-10-05T01:49:49.633Z,739.6
2016-10-05T01:50:49.623Z,739.6
2016-10-05T01:51:49.605Z,739.6
2016-10-05T01:52:49.583Z,739.56
2016-10-05T01:53:49.573Z,739.57
2016-10-05T01:54:49.554Z,739.61
2016-10-05T01:55:49.529Z,739.59
2016-10-05T01:56:49.521Z,739.55
2016-10-05T01:57:49.503Z,739.54
2016-10-05T01:58:49.478Z,739.52
2016-10-05T01:59:49.470Z,739.5
2016-10-05T02:00:49.452Z,739.49
2016-10-05T02:01:49.429Z,739.49
2016-10-05T02:02:49.417Z,739.47
2016-10-05T02:03:49.401Z,739.49
2016-10-05T02:04:49.376Z,739.54
2016-10-05T02:05:49.365Z,739.53
2016-10-05T02:06:49.349Z,739.52
2016-10-05T02:07:49.331Z,739.56
2016-10-05T02:08:49.315Z,739.48
2016-10-05T02:09:49.291Z,739.5
2016-10-05T02:10:49.273Z,739.47
2016-10-05T02:11:49.255Z,739.5
2016-10-05T02:12:49.245Z,739.43
2016-10-05T02:13:49.220Z,739.48
2016-10-05T02:14:49.204Z,739.46
2016-10-05T02:15:49.194Z,739.46
2016-10-05T02:16:49.170Z,739.41
2016-10-05T02:17:49.150Z,739.41
2016-10-05T02:18:49.140Z,739.42
2016-10-05T02:19:49.124Z,739.39
2016-10-05T02:20:49.105Z,739.39
2016-10-05T02:21:49.081Z,739.39
2016-10-05T02:22:49.062Z,739.39
2016-10-05T02:23:49.053Z,739.4
2016-10-05T02:24:49.035Z,739.46
2016-10-05T02:25:49.018Z,739.38
2016-10-05T02:26:48.993Z,739.38
2016-10-05T02:27:48.975Z,739.33
2016-10-05T02:28:48.965Z,739.35
2016-10-05T02:29:48.948Z,739.3
2016-10-05T02:30:48.931Z,739.3
2016-10-05T02:31:48.912Z,739.3
2016-10-05T02:32:48.887Z,739.24
2016-10-05T02:33:48.870Z,739.2
2016-10-05T02:34:48.860Z,739.29
2016-10-05T02:35:48.835Z,739.26
2016-10-05T02:36:48.825Z,739.24
2016-10-05T02:37:48.801Z,739.27
2016-10-05T02:38:48.790Z,739.26
2016-10-05T02:39:48.766Z,739.23
2016-10-05T02:40:48.750Z,739.23
2016-10-05T02:41:48.733Z,739.22
2016-10-05T02:42:48.721Z,739.23
2016-10-05T02:43:48.703Z,739.23
2016-10-05T02:44:48.687Z,739.24
2016-10-05T02:45:48.661Z,739.21
2016-10-05T02:46:48.645Z,739.19
2016-10-05T02:47:48.627Z,739.15
2016-10-05T02:48:48.618Z,739.21
2016-10-05T02:49:48.592Z,739.16
2016-10-05T02:50:48.575Z,739.12
2016-10-05T02:51:48.565Z,739.18
2016-10-05T02:52:48.541Z,739.16
2016-10-05T02:53:48.522Z,739.16
2016-10-05T02:54:48.506Z,739.1
2016-10-05T02:55:48.487Z,739.15
2016-10-05T02:56:48.477Z,739.14
2016-10-05T02:57:48.453Z,739.15
2016-10-05T02:58:48.443Z,739.14
2016-10-05T02:59:48.419Z,739.13
2016-10-05T03:00:48.402Z,739.17
2016-10-05T03:01:48.385Z,739.17
2016-10-05T03:02:48.374Z,739.17
2016-10-05T03:03:48.359Z,739.16
2016-10-05T03:04:48.340Z,739.14
2016-10-05T03:05:48.317Z,739.14
2016-10-05T03:06:48.308Z,739.16
2016-10-05T03:07:48.288Z,739.18
2016-10-05T03:08:48.272Z,739.17
2016-10-05T03:09:48.254Z,739.12
2016-10-05T03:10:48.232Z,739.13
2016-10-05T03:11:48.214Z,739.13
2016-10-05T03:12:48.203Z,739.11
2016-10-05T03:13:48.186Z,739.07
2016-10-05T03:14:48.161Z,739.08
2016-10-05T03:15:48.144Z,739.07
2016-10-05T03:16:48.128Z,739.08
2016-10-05T03:17:48.110Z,739.08
2016-10-05T03:18:48.092Z,739.13
2016-10-05T03:19:48.081Z,739.09
2016-10-05T03:20:48.064Z,739.08
2016-10-05T03:21:48.038Z,739.05
2016-10-05T03:22:48.021Z,738.99
2016-10-05T03:23:48.010Z,738.96
2016-10-05T03:24:47.986Z,738.96
2016-10-05T03:25:47.975Z,738.94
2016-10-05T03:26:47.950Z,738.9
2016-10-05T03:27:47.939Z,738.88
2016-10-05T03:28:47.921Z,738.92
2016-10-05T03:29:47.896Z,738.94
2016-10-05T03:30:47.878Z,738.92
2016-10-05T03:31:47.868Z,738.89
2016-10-05T03:32:47.844Z,738.94
2016-10-05T03:33:47.830Z,738.9
2016-10-05T03:34:47.806Z,738.88
2016-10-05T03:35:47.791Z,738.86
2016-10-05T03:36:47.772Z,738.85
2016-10-05T03:37:47.760Z,738.89
2016-10-05T03:38:47.736Z,738.88
2016-10-05T03:39:47.726Z,738.85
2016-10-05T03:40:47.708Z,738.87
2016-10-05T03:41:47.682Z,738.89
2016-10-05T03:42:47.672Z,738.83
2016-10-05T03:43:47.655Z,738.82
2016-10-05T03:44:47.630Z,738.88
2016-10-05T03:45:47.613Z,738.92
2016-10-05T03:46:47.603Z,738.96
2016-10-05T03:47:47.586Z,738.91
2016-10-05T03:48:47.561Z,738.93
2016-10-05T03:49:47.542Z,738.9
2016-10-05T03:50:47.526Z,738.87
2016-10-05T03:51:47.514Z,738.87
2016-10-05T03:52:47.497Z,738.84
2016-10-05T03:53:47.473Z,738.83
2016-10-05T03:54:47.455Z,738.82
2016-10-05T03:55:47.438Z,738.82
2016-10-05T03:56:47.421Z,738.81
2016-10-05T03:57:47.410Z,738.84
2016-10-05T03:58:47.393Z,738.78
2016-10-05T03:59:47.367Z,738.78
2016-10-05T04:00:47.358Z,738.76
2016-10-05T04:01:47.333Z,738.76
2016-10-05T04:02:47.322Z,738.76
2016-10-05T04:03:47.306Z,738.75
2016-10-05T04:04:47.287Z,738.74
2016-10-05T04:05:47.270Z,738.75
2016-10-05T04:06:47.252Z,738.73
2016-10-05T04:07:47.234Z,738.72
2016-10-05T04:08:47.217Z,738.68
2016-10-05T04:09:47.191Z,738.69
2016-10-05T04:10:47.182Z,738.62
2016-10-05T04:11:47.158Z,738.67
2016-10-05T04:12:47.143Z,738.7
2016-10-05T04:13:47.128Z,738.66
2016-10-05T04:14:47.110Z,738.64
2016-10-05T04:15:47.094Z,738.63
2016-10-05T04:16:47.069Z,738.63
2016-10-05T04:17:47.051Z,738.59
2016-10-05T04:18:47.035Z,738.57
2016-10-05T04:19:47.024Z,738.61
2016-10-05T04:20:47.008Z,738.57
2016-10-05T04:21:46.983Z,738.55
2016-10-05T04:22:46.972Z,738.59
2016-10-05T04:23:46.955Z,738.54
2016-10-05T04:24:46.928Z,738.57
2016-10-05T04:25:46.924Z,738.55
2016-10-05T04:26:46.902Z,738.52
2016-10-05T04:27:46.886Z,738.52
2016-10-05T04:28:46.861Z,738.47
2016-10-05T04:29:46.842Z,738.49
2016-10-05T04:30:46.825Z,738.44
2016-10-05T04:31:46.808Z,738.49
2016-10-05T04:32:46.796Z,738.45
2016-10-05T04:33:46.774Z,738.43
2016-10-05T04:34:46.763Z,738.5
2016-10-05T04:35:46.739Z,738.53
2016-10-05T04:36:46.721Z,738.44
2016-10-05T04:37:46.702Z,738.44
2016-10-05T04:38:46.685Z,738.44
2016-10-05T04:39:46.675Z,738.42
2016-10-05T04:40:46.656Z,738.44
2016-10-05T04:41:46.640Z,738.47
2016-10-05T04:42:46.621Z,738.45
2016-10-05T04:43:46.604Z,738.44
2016-10-05T04:44:46.579Z,738.55
2016-10-05T04:45:46.569Z,738.56
2016-10-05T04:46:46.550Z,738.53
2016-10-05T04:47:46.526Z,738.53
2016-10-05T04:48:46.508Z,738.54
2016-10-05T04:49:46.491Z,738.55
2016-10-05T04:50:46.472Z,738.54
2016-10-05T04:51:46.454Z,738.54
2016-10-05T04:52:46.437Z,738.51
2016-10-05T04:53:46.418Z,738.51
2016-10-05T04:54:46.408Z,738.53
2016-10-05T04:55:46.383Z,738.56
2016-10-05T04:56:46.366Z,738.55
2016-10-05T04:57:46.354Z,738.55
2016-10-05T04:58:46.337Z,738.53
2016-10-05T04:59:46.319Z,738.5
2016-10-05T05:00:46.302Z,738.46
2016-10-05T05:01:46.285Z,738.5
2016-10-05T05:02:46.261Z,738.44
2016-10-05T05:03:46.243Z,738.44
2016-10-05T05:04:46.231Z,738.43
2016-10-05T05:05:46.213Z,738.36
2016-10-05T05:06:46.195Z,738.39
2016-10-05T05:07:46.178Z,738.38
2016-10-05T05:08:46.153Z,738.37
2016-10-05T05:09:46.142Z,738.35
2016-10-05T05:10:46.125Z,738.4
2016-10-05T05:11:46.108Z,738.4
2016-10-05T05:12:46.089Z,738.44
2016-10-05T05:13:46.065Z,738.3
2016-10-05T05:14:46.047Z,738.31
2016-10-05T05:15:46.035Z,738.39
2016-10-05T05:16:46.011Z,738.37
2016-10-05T05:17:46.001Z,738.37
2016-10-05T05:18:45.983Z,738.39
2016-10-05T05:19:45.958Z,738.43
2016-10-05T05:20:45.946Z,738.45
2016-10-05T05:21:45.924Z,738.43
2016-10-05T05:22:45.905Z,738.44
2016-10-05T05:23:45.887Z,738.43
2016-10-05T05:24:45.870Z,738.49
2016-10-05T05:25:45.851Z,738.49
2016-10-05T05:26:45.840Z,738.42
2016-10-05T05:27:45.816Z,738.48
2016-10-05T05:28:45.799Z,738.42
2016-10-05T05:29:45.788Z,738.43
2016-10-05T05:30:45.761Z,738.46
2016-10-05T05:31:45.752Z,738.49
2016-10-05T05:32:45.734Z,738.45
2016-10-05T05:33:45.711Z,738.46
2016-10-05T05:34:45.691Z,738.45
2016-10-05T05:35:45.674Z,738.42
2016-10-05T05:36:45.657Z,738.41
2016-10-05T05:37:45.640Z,738.38
2016-10-05T05:38:45.623Z,738.41
2016-10-05T05:39:45.615Z,738.42
2016-10-05T05:40:45.596Z,738.5
2016-10-05T05:41:45.570Z,738.45
2016-10-05T05:42:45.559Z,738.43
2016-10-05T05:43:45.534Z,738.46
2016-10-05T05:44:45.517Z,738.52
2016-10-05T05:45:45.500Z,738.5
2016-10-05T05:46:45.490Z,738.41
2016-10-05T05:47:45.471Z,738.43
2016-10-05T05:48:45.448Z,738.45
2016-10-05T05:49:45.436Z,738.43
2016-10-05T05:50:45.413Z,738.46
2016-10-05T05:51:45.395Z,738.46
2016-10-05T05:52:45.383Z,738.46
2016-10-05T05:53:45.366Z,738.44
2016-10-05T05:54:45.342Z,738.5
2016-10-05T05:55:45.331Z,738.48
2016-10-05T05:56:45.306Z,738.41
2016-10-05T05:57:45.296Z,738.39
2016-10-05T05:58:45.273Z,738.35
2016-10-05T05:59:45.255Z,738.39
2016-10-05T06:00:45.238Z,738.37
2016-10-05T06:01:45.220Z,738.35
2016-10-05T06:02:45.211Z,738.41
2016-10-05T06:03:45.187Z,738.39
2016-10-05T06:04:45.176Z,738.43
2016-10-05T06:05:45.151Z,738.44
2016-10-05T06:06:45.142Z,738.48
2016-10-05T06:07:45.118Z,738.44
2016-10-05T06:08:45.101Z,738.47
2016-10-05T06:09:45.084Z,738.45
2016-10-05T06:10:45.068Z,738.4
2016-10-05T06:11:45.058Z,738.42
2016-10-05T06:12:45.042Z,738.38
2016-10-05T06:13:45.018Z,738.4
2016-10-05T06:14:45.003Z,738.4
2016-10-05T06:15:44.984Z,738.41
2016-10-05T06:16:44.968Z,738.43
2016-10-05T06:17:44.959Z,738.38
2016-10-05T06:18:44.936Z,738.38
2016-10-05T06:19:44.921Z,738.34
2016-10-05T06:20:44.922Z,738.32
2016-10-05T06:21:44.896Z,738.28
2016-10-05T06:22:44.880Z,738.28
2016-10-05T06:23:44.864Z,738.29
2016-10-05T06:24:44.841Z,738.24
2016-10-05T06:25:44.831Z,738.23
2016-10-05T06:26:44.815Z,738.29
2016-10-05T06:27:44.792Z,738.3
2016-10-05T06:28:44.776Z,738.29
2016-10-05T06:29:44.766Z,738.27
2016-10-05T06:30:44.745Z,738.3
2016-10-05T06:31:44.729Z,738.24
2016-10-05T06:32:44.713Z,738.22
2016-10-05T06:33:44.705Z,738.21
2016-10-05T06:34:44.689Z,738.26
2016-10-05T06:35:44.667Z,738.33
2016-10-05T06:36:44.650Z,738.31
2016-10-05T06:37:44.643Z,738.22
2016-10-05T06:38:44.621Z,738.24
2016-10-05T06:39:44.611Z,738.26
2016-10-05T06:40:44.590Z,738.27
2016-10-05T06:41:44.576Z,738.25
2016-10-05T06:42:44.560Z,738.21
2016-10-05T06:43:44.546Z,738.18
2016-10-05T06:44:44.530Z,738.24
2016-10-05T06:45:44.518Z,738.23
2016-10-05T06:46:44.502Z,738.25
2016-10-05T06:47:44.494Z,738.24
2016-10-05T06:48:44.473Z,738.24
2016-10-05T06:49:44.458Z,738.2
2016-10-05T06:50:44.444Z,738.21
2016-10-05T06:51:44.436Z,738.2
2016-10-05T06:52:44.422Z,738.16
2016-10-05T06:53:44.408Z,738.24
2016-10-05T06:54:44.386Z,738.19
2016-10-05T06:55:44.379Z,738.19
2016-10-05T06:56:44.365Z,738.2
2016-10-05T06:57:44.351Z,738.19
2016-10-05T06:58:44.329Z,738.19
2016-10-05T06:59:44.327Z,738.16
2016-10-05T07:00:44.309Z,738.16
2016-10-05T07:01:44.296Z,738.15
2016-10-05T07:02:44.274Z,738.11
2016-10-05T07:03:44.262Z,738.1
2016-10-05T07:04:44.255Z,738.05
2016-10-05T07:05:44.240Z,738.08
2016-10-05T07:06:44.228Z,738.09
2016-10-05T07:07:44.209Z,738.08
2016-10-05T07:08:44.202Z,738.07
2016-10-05T07:09:44.189Z,738.03
2016-10-05T07:10:44.175Z,738.02
2016-10-05T07:11:44.163Z,738.05
2016-10-05T07:12:44.149Z,738.03
2016-10-05T07:13:44.130Z,738.01
2016-10-05T07:14:44.124Z,738.02
2016-10-05T07:15:44.111Z,738
2016-10-05T07:16:44.092Z,738.01
2016-10-05T07:17:44.086Z,738.03
2016-10-05T07:18:44.075Z,738.04
2016-10-05T07:19:44.055Z,738.05
2016-10-05T07:20:44.142Z,738.04
2016-10-05T07:21:44.031Z,738.04
2016-10-05T07:22:44.026Z,738.06
2016-10-05T07:23:44.013Z,738.07
2016-10-05T07:24:44.003Z,738.07
2016-10-05T07:25:43.981Z,738.04
2016-10-05T07:26:43.970Z,738.05
2016-10-05T07:27:43.957Z,738.03
2016-10-05T07:28:43.951Z,738.02
2016-10-05T07:29:43.939Z,738.02
2016-10-05T07:30:43.919Z,737.98
2016-10-05T07:31:43.907Z,737.98
2016-10-05T07:32:43.896Z,738
2016-10-05T07:33:43.891Z,737.97
2016-10-05T07:34:43.872Z,738
2016-10-05T07:35:43.867Z,737.96
2016-10-05T07:36:43.849Z,737.92
2016-10-05T07:37:43.836Z,737.99
2016-10-05T07:38:43.823Z,737.98
2016-10-05T07:39:43.812Z,737.94
2016-10-05T07:40:43.808Z,737.98
2016-10-05T07:41:43.797Z,737.95
2016-10-05T07:42:43.778Z,737.95
2016-10-05T07:43:43.769Z,737.91
2016-10-05T07:44:43.764Z,737.94
2016-10-05T07:45:43.752Z,737.92
2016-10-05T07:46:43.735Z,737.86
2016-10-05T07:47:43.730Z,737.87
2016-10-05T07:48:43.720Z,737.82
2016-10-05T07:49:43.700Z,737.88
2016-10-05T07:50:43.696Z,737.89
2016-10-05T07:51:43.685Z,737.86
2016-10-05T07:52:43.667Z,737.82
2016-10-05T07:53:43.661Z,737.86
2016-10-05T07:54:43.643Z,737.86
2016-10-05T07:55:43.631Z,737.86
2016-10-05T07:56:43.627Z,737.85
2016-10-05T07:57:43.608Z,737.82
2016-10-05T07:58:43.596Z,737.87
2016-10-05T07:59:43.592Z,737.9
2016-10-05T08:00:43.580Z,737.92
2016-10-05T08:01:43.562Z,737.87
2016-10-05T08:02:43.556Z,737.87
2016-10-05T08:03:43.536Z,737.84
2016-10-05T08:04:43.526Z,737.8
2016-10-05T08:05:43.522Z,737.82
2016-10-05T08:06:43.510Z,737.78
2016-10-05T08:07:43.492Z,737.79
2016-10-05T08:08:43.488Z,737.72
2016-10-05T08:09:43.471Z,737.76
2016-10-05T08:10:43.467Z,737.76
2016-10-05T08:11:43.455Z,737.77
2016-10-05T08:12:43.443Z,737.78
2016-10-05T08:13:43.433Z,737.74
2016-10-05T08:14:43.414Z,737.73
2016-10-05T08:15:43.411Z,737.76
2016-10-05T08:16:43.401Z,737.72
2016-10-05T08:17:43.383Z,737.76
2016-10-05T08:18:43.372Z,737.76
2016-10-05T08:19:43.369Z,737.74
2016-10-05T08:20:43.351Z,737.74
2016-10-05T08:21:43.348Z,737.76
2016-10-05T08:22:43.337Z,737.78
2016-10-05T08:23:43.321Z,737.8
2016-10-05T08:24:43.311Z,737.79
2016-10-05T08:25:43.299Z,737.79
2016-10-05T08:26:43.296Z,737.74
2016-10-05T08:27:43.287Z,737.73
2016-10-05T08:28:43.270Z,737.77
2016-10-05T08:29:43.260Z,737.81
2016-10-05T08:30:43.257Z,737.78
2016-10-05T08:31:43.240Z,737.75
2016-10-05T08:32:43.237Z,737.8
2016-10-05T08:33:43.219Z,737.8
2016-10-05T08:34:43.216Z,737.77
2016-10-05T08:35:43.207Z,737.78
2016-10-05T08:36:43.196Z,737.79
2016-10-05T08:37:43.179Z,737.84
2016-10-05T08:38:43.171Z,737.76
2016-10-05T08:39:43.159Z,737.84
2016-10-05T08:40:43.149Z,737.77
2016-10-05T08:41:43.139Z,737.8
2016-10-05T08:42:43.135Z,737.77
2016-10-05T08:43:43.141Z,737.75
2016-10-05T08:44:43.107Z,737.73
2016-10-05T08:45:43.104Z,737.67
2016-10-05T08:46:43.094Z,737.67
2016-10-05T08:47:43.075Z,737.69
2016-10-05T08:48:43.065Z,737.73
2016-10-05T08:49:43.055Z,737.68
2016-10-05T08:50:43.044Z,737.66
2016-10-05T08:51:43.031Z,737.68
2016-10-05T08:52:43.021Z,737.69
2016-10-05T08:53:43.018Z,737.65
2016-10-05T08:54:43.008Z,737.61
2016-10-05T08:55:42.991Z,737.66
2016-10-05T08:56:42.980Z,737.64
2016-10-05T08:57:42.976Z,737.64
2016-10-05T08:58:42.958Z,737.66
2016-10-05T08:59:42.949Z,737.59
2016-10-05T09:00:42.939Z,737.66
2016-10-05T09:01:42.936Z,737.66
2016-10-05T09:02:42.925Z,737.7
2016-10-05T09:03:42.906Z,737.69
2016-10-05T09:04:42.905Z,737.71
2016-10-05T09:05:42.894Z,737.74
2016-10-05T09:06:42.884Z,737.69
2016-10-05T09:07:43.017Z,737.71
2016-10-05T09:08:42.857Z,737.65
2016-10-05T09:09:42.847Z,737.66
2016-10-05T09:10:42.843Z,737.6
2016-10-05T09:11:42.834Z,737.59
2016-10-05T09:12:42.824Z,737.59
2016-10-05T09:13:42.806Z,737.62
2016-10-05T09:14:42.803Z,737.59
2016-10-05T09:15:42.793Z,737.6
2016-10-05T09:16:42.781Z,737.59
2016-10-05T09:17:42.767Z,737.59
2016-10-05T09:18:42.764Z,737.57
2016-10-05T09:19:42.754Z,737.6
2016-10-05T09:20:42.737Z,737.57
2016-10-05T09:21:42.734Z,737.54
2016-10-05T09:22:42.718Z,737.49
2016-10-05T09:23:42.716Z,737.53
2016-10-05T09:24:42.697Z,737.59
2016-10-05T09:25:42.688Z,737.55
2016-10-05T09:26:42.679Z,737.48
2016-10-05T09:27:42.669Z,737.47
2016-10-05T09:28:42.659Z,737.41
2016-10-05T09:29:42.651Z,737.4
2016-10-05T09:30:42.642Z,737.38
2016-10-05T09:31:42.631Z,737.42
2016-10-05T09:32:42.623Z,737.42
2016-10-05T09:33:42.619Z,737.47
2016-10-05T09:34:42.617Z,737.47
2016-10-05T09:35:42.594Z,737.53
2016-10-05T09:36:42.593Z,737.52
2016-10-05T09:37:42.576Z,737.47
2016-10-05T09:38:42.573Z,737.39
2016-10-05T09:39:42.569Z,737.4
2016-10-05T09:40:42.554Z,737.4
2016-10-05T09:41:42.545Z,737.41
2016-10-05T09:42:42.534Z,737.39
2016-10-05T09:43:42.525Z,737.36
2016-10-05T09:44:42.515Z,737.29
2016-10-05T09:45:42.506Z,737.35
2016-10-05T09:46:42.489Z,737.34
2016-10-05T09:47:42.479Z,737.33
2016-10-05T09:48:42.470Z,737.36
2016-10-05T09:49:42.458Z,737.4
2016-10-05T09:50:42.448Z,737.45
2016-10-05T09:51:42.439Z,737.46
2016-10-05T09:52:42.429Z,737.45
2016-10-05T09:53:42.419Z,737.53
2016-10-05T09:54:42.407Z,737.52
2016-10-05T09:55:42.398Z,737.5
2016-10-05T09:56:42.394Z,737.49
2016-10-05T09:57:42.376Z,737.49
2016-10-05T09:58:42.366Z,737.5
2016-10-05T09:59:42.362Z,737.4
2016-10-05T10:00:42.350Z,737.51
2016-10-05T10:01:42.334Z,737.46
2016-10-05T10:02:42.323Z,737.38
2016-10-05T10:03:42.311Z,737.35
2016-10-05T10:04:42.307Z,737.42
2016-10-05T10:05:42.297Z,737.31
2016-10-05T10:06:42.285Z,737.26
2016-10-05T10:07:42.274Z,737.33
2016-10-05T10:08:42.262Z,737.32
2016-10-05T10:09:42.251Z,737.29
2016-10-05T10:10:42.240Z,737.27
2016-10-05T10:11:42.222Z,737.32
2016-10-05T10:12:42.210Z,737.3
2016-10-05T10:13:42.216Z,737.32
2016-10-05T10:14:42.195Z,737.34
2016-10-05T10:15:42.178Z,737.3
2016-10-05T10:16:42.174Z,737.29
2016-10-05T10:17:42.163Z,737.24
2016-10-05T10:18:42.153Z,737.31
2016-10-05T10:19:42.141Z,737.28
2016-10-05T10:20:42.131Z,737.24
2016-10-05T10:21:42.120Z,737.12
2016-10-05T10:22:42.109Z,737.18
2016-10-05T10:23:42.100Z,737.16
2016-10-05T10:24:42.082Z,737.18
2016-10-05T10:25:42.080Z,737.17
2016-10-05T10:26:42.061Z,737.13
2016-10-05T10:27:42.050Z,737.16
2016-10-05T10:28:42.047Z,737.17
2016-10-05T10:29:42.036Z,737.2
2016-10-05T10:30:42.020Z,737.2
2016-10-05T10:31:42.010Z,737.35
2016-10-05T10:32:41.999Z,737.31
2016-10-05T10:33:41.988Z,737.3
2016-10-05T10:34:41.984Z,737.38
2016-10-05T10:35:41.973Z,737.29
2016-10-05T10:36:41.963Z,737.24
2016-10-05T10:37:41.951Z,737.26
2016-10-05T10:38:41.941Z,737.3
2016-10-05T10:39:41.930Z,737.34
2016-10-05T10:40:41.917Z,737.29
2016-10-05T10:41:41.907Z,737.21
2016-10-05T10:42:41.897Z,737.19
2016-10-05T10:43:41.878Z,737.14
2016-10-05T10:44:41.871Z,737.2
2016-10-05T10:45:41.851Z,737.29
2016-10-05T10:46:41.840Z,737.3
2016-10-05T10:47:41.835Z,737.34
2016-10-05T10:48:41.823Z,737.26
2016-10-05T10:49:41.811Z,737.38
2016-10-05T10:50:41.798Z,737.42
2016-10-05T10:51:41.785Z,737.27
2016-10-05T10:52:41.765Z,737.31
2016-10-05T10:53:41.755Z,737.27
2016-10-05T10:54:41.743Z,737.26
2016-10-05T10:55:41.736Z,737.2
2016-10-05T10:56:41.717Z,737.16
2016-10-05T10:57:41.713Z,737.09
2016-10-05T10:58:41.700Z,737.1
2016-10-05T10:59:41.680Z,737.06
2016-10-05T11:00:41.668Z,737.12
2016-10-05T11:01:41.654Z,737.14
2016-10-05T11:02:41.640Z,737.14
2016-10-05T11:03:41.634Z,737.12
2016-10-05T11:04:41.620Z,737.14
2016-10-05T11:05:41.601Z,737.11
2016-10-05T11:06:41.585Z,737.13
2016-10-05T11:07:41.594Z,737.17
2016-10-05T11:08:41.563Z,737.11
2016-10-05T11:09:41.543Z,737.08
2016-10-05T11:10:41.534Z,737.07
2016-10-05T11:11:41.512Z,737.06
2016-10-05T11:12:41.496Z,737.04
2016-10-05T11:13:41.478Z,737.01
2016-10-05T11:14:41.464Z,737.02
2016-10-05T11:15:41.448Z,737.04
2016-10-05T11:16:41.432Z,737.02
2016-10-05T11:17:41.421Z,736.99
2016-10-05T11:18:41.398Z,737.04
2016-10-05T11:19:41.380Z,737.06
2016-10-05T11:20:41.371Z,737.03
2016-10-05T11:21:41.346Z,737.04
2016-10-05T11:22:41.337Z,737.07
2016-10-05T11:23:41.313Z,737.05
2016-10-05T11:24:41.303Z,737.07
2016-10-05T11:25:41.287Z,737.09
2016-10-05T11:26:41.263Z,737.08
2016-10-05T11:27:41.255Z,737
2016-10-05T11:28:41.231Z,736.98
2016-10-05T11:29:41.222Z,736.97
2016-10-05T11:30:41.200Z,736.97
2016-10-05T11:31:41.183Z,736.91
2016-10-05T11:32:41.173Z,736.93
2016-10-05T11:33:41.157Z,736.94
2016-10-05T11:34:41.134Z,736.92
2016-10-05T11:35:41.125Z,736.91
2016-10-05T11:36:41.110Z,736.9
2016-10-05T11:37:41.088Z,736.84
2016-10-05T11:38:41.083Z,736.88
2016-10-05T11:39:41.061Z,736.88
2016-10-05T11:40:41.047Z,736.89
2016-10-05T11:41:41.031Z,736.89
2016-10-05T11:42:41.017Z,736.96
2016-10-05T11:43:40.993Z,736.99
2016-10-05T11:44:40.985Z,737.07
2016-10-05T11:45:40.964Z,737.02
2016-10-05T11:46:40.949Z,736.9
2016-10-05T11:47:40.942Z,736.92
2016-10-05T11:48:40.921Z,736.9
2016-10-05T11:49:40.913Z,736.88
2016-10-05T11:50:40.891Z,736.85
2016-10-05T11:51:40.878Z,736.86
2016-10-05T11:52:40.871Z,736.69
2016-10-05T11:53:40.858Z,736.6
2016-10-05T11:54:40.839Z,736.64
2016-10-05T11:55:40.825Z,736.65
2016-10-05T11:56:40.813Z,736.65
2016-10-05T11:57:40.804Z,736.74
2016-10-05T11:58:40.784Z,736.73
2016-10-05T11:59:40.779Z,736.73
2016-10-05T12:00:40.759Z,736.72
2016-10-05T12:01:40.746Z,736.72
2016-10-05T12:02:40.739Z,736.72
2016-10-05T12:03:40.726Z,736.66
2016-10-05T12:04:40.713Z,736.67
2016-10-05T12:05:40.693Z,736.66
2016-10-05T12:06:40.681Z,736.62
2016-10-05T12:07:40.675Z,736.62
2016-10-05T12:08:40.654Z,736.62
2016-10-05T12:09:40.642Z,736.65
2016-10-05T12:10:40.837Z,736.71
2016-10-05T12:11:40.622Z,736.73
2016-10-05T12:12:40.608Z,736.78
2016-10-05T12:13:40.595Z,736.77
2016-10-05T12:14:40.583Z,736.69
2016-10-05T12:15:40.771Z,736.72
2016-10-05T12:16:40.551Z,736.62
2016-10-05T12:17:40.548Z,736.59
2016-10-05T12:18:40.534Z,736.48
2016-10-05T12:19:40.522Z,736.46
2016-10-05T12:20:40.508Z,736.56
2016-10-05T12:21:40.495Z,736.57
2016-10-05T12:22:40.477Z,736.53
2016-10-05T12:23:40.472Z,736.51
2016-10-05T12:24:40.450Z,736.48
2016-10-05T12:25:40.444Z,736.44
2016-10-05T12:26:40.423Z,736.51
2016-10-05T12:27:40.410Z,736.53
2016-10-05T12:28:40.404Z,736.49
2016-10-05T12:29:40.390Z,736.55
2016-10-05T12:30:40.371Z,736.52
2016-10-05T12:31:40.356Z,736.54